Time;durP1;ratioP1;P1;durP2;ratioP2;P2;SDS_P1;SDS_P2;PMS_P1;PMS_P2;Temp;Humidity;BMP_temperature;BMP_pressure;BME280_temperature;BME280_humidity;BME280_pressure;Samples;Min_cycle;Max_cycle;Signal;HPM_P1;HPM_P2
2023/06/21 00:01:11;;;;;;;20.52;18.73;;;;;;;-141.84;70.38;21903.66;4992470;28;20257;-62
2023/06/21 00:03:40;;;;;;;21.23;19.48;;;;;;;-141.84;70.65;21928.06;4992661;28;20203;-61
2023/06/21 00:06:08;;;;;;;21.50;19.65;;;;;;;-141.84;70.88;21934.16;4992557;28;20207;-62
2023/06/21 00:08:38;;;;;;;22.13;20.13;;;;;;;-141.84;70.80;22001.28;4991865;28;20294;-61
2023/06/21 00:11:07;;;;;;;24.15;21.95;;;;;;;-141.84;71.70;22015.50;4992444;28;20231;-62
2023/06/21 00:13:36;;;;;;;22.30;20.35;;;;;;;-141.84;72.48;21960.59;4992729;28;20290;-61
2023/06/21 00:16:05;;;;;;;23.08;21.05;;;;;;;-141.84;74.86;21875.19;4991994;28;20322;-62
2023/06/21 00:18:33;;;;;;;22.42;20.23;;;;;;;-141.84;77.30;21785.72;4981560;28;20290;-62
2023/06/21 00:21:02;;;;;;;22.50;20.40;;;;;;;-141.84;79.13;21696.25;4973346;28;20286;-62
2023/06/21 00:23:31;;;;;;;23.38;21.15;;;;;;;-141.84;80.76;21671.84;4973006;28;20208;-62
2023/06/21 00:25:59;;;;;;;23.77;21.40;;;;;;;-141.84;82.81;21635.25;4972854;28;20228;-61
2023/06/21 00:28:27;;;;;;;21.65;19.45;;;;;;;-141.84;84.53;21549.84;4972742;28;20766;-61
2023/06/21 00:30:57;;;;;;;22.35;20.00;;;;;;;-141.84;86.78;21476.66;4972749;28;20212;-62
2023/06/21 00:33:26;;;;;;;20.67;18.77;;;;;;;-141.84;88.47;21458.38;4972610;28;20204;-62
2023/06/21 00:35:55;;;;;;;20.55;18.65;;;;;;;-141.84;89.75;21381.09;4972749;28;20291;-62
2023/06/21 00:38:23;;;;;;;22.42;20.30;;;;;;;-141.84;91.12;21415.66;4972803;28;20238;-62
2023/06/21 00:40:53;;;;;;;21.98;19.80;;;;;;;-141.84;91.75;21389.22;4977636;28;20238;-61
2023/06/21 00:43:21;;;;;;;21.73;19.52;;;;;;;-141.84;92.78;21330.28;4991929;28;20289;-63
2023/06/21 00:45:50;;;;;;;21.70;19.70;;;;;;;-141.84;93.65;21328.25;4972419;28;20228;-62
2023/06/21 00:48:19;;;;;;;23.17;20.88;;;;;;;-141.84;94.37;21301.81;4974519;28;20204;-63
2023/06/21 00:50:48;;;;;;;23.27;21.05;;;;;;;-141.84;94.90;21293.69;4972768;28;20746;-62
2023/06/21 00:53:17;;;;;;;23.20;20.90;;;;;;;-141.84;95.15;21287.56;4987552;28;20231;-61
2023/06/21 00:55:45;;;;;;;23.13;20.90;;;;;;;-141.84;95.69;21269.28;4991591;28;20994;-62
2023/06/21 00:58:14;;;;;;;23.73;21.38;;;;;;;-141.84;96.04;21297.75;4991732;28;20195;-61
2023/06/21 01:00:44;;;;;;;23.10;20.83;;;;;;;-141.84;95.79;21257.09;4991413;28;20239;-62
2023/06/21 01:03:13;;;;;;;22.80;20.40;;;;;;;-141.84;96.33;21250.97;4991471;28;20329;-61
2023/06/21 01:05:44;;;;;;;24.17;21.67;;;;;;;-141.84;95.78;21305.88;4991409;28;20269;-62
2023/06/21 01:08:22;;;;;;;23.25;21.05;;;;;;;-141.84;96.13;21259.13;4991336;28;20667;-62
2023/06/21 01:11:02;;;;;;;23.27;20.85;;;;;;;-141.84;96.73;21206.25;4972511;28;20231;-61
2023/06/21 01:13:43;;;;;;;24.33;21.55;;;;;;;-141.84;97.17;21222.53;4971895;28;20686;-62
2023/06/21 01:16:14;;;;;;;24.35;20.35;;;;;;;-141.84;97.43;21204.22;4971761;28;20236;-62
2023/06/21 01:18:46;;;;;;;20.90;19.00;;;;;;;-141.84;97.72;21163.56;4975830;28;20204;-63
2023/06/21 01:21:18;;;;;;;23.33;19.77;;;;;;;-141.84;98.36;21151.34;4971039;28;20609;-62
2023/06/21 01:24:03;;;;;;;23.05;20.38;;;;;;;-141.84;98.50;21157.47;4972335;28;20280;-63
2023/06/21 01:26:53;;;;;;;21.88;19.73;;;;;;;-141.84;99.10;21151.34;4972119;28;20212;-61
2023/06/21 01:29:27;;;;;;;21.55;19.63;;;;;;;-141.84;98.78;21092.41;4972278;28;20279;-61
2023/06/21 01:31:57;;;;;;;21.20;19.05;;;;;;;-141.84;98.93;21118.84;4971813;28;20286;-62
2023/06/21 01:34:27;;;;;;;20.90;18.90;;;;;;;-141.84;99.38;21102.56;4971890;28;20499;-61
2023/06/21 01:36:58;;;;;;;20.77;18.65;;;;;;;-141.84;99.08;21116.78;4975303;28;20235;-62
2023/06/21 01:39:28;;;;;;;19.90;18.00;;;;;;;-141.84;98.82;21102.56;4991427;28;20278;-62
2023/06/21 01:41:58;;;;;;;18.85;16.85;;;;;;;-141.84;99.25;21084.28;4991320;28;20242;-62
2023/06/21 01:44:29;;;;;;;17.67;16.08;;;;;;;-141.84;99.59;21061.91;4981997;28;20214;-61
2023/06/21 01:46:59;;;;;;;18.90;17.08;;;;;;;-141.84;99.70;21033.44;4971332;28;20311;-63
2023/06/21 01:49:31;;;;;;;18.35;16.52;;;;;;;-141.84;100.00;21000.91;4973951;28;20200;-62
2023/06/21 01:52:04;;;;;;;18.23;16.42;;;;;;;-141.84;100.00;21015.16;4976918;28;20192;-62
2023/06/21 01:54:34;;;;;;;18.30;15.85;;;;;;;-141.84;100.00;20994.81;4991087;28;20616;-61
2023/06/21 01:57:04;;;;;;;18.95;17.15;;;;;;;-141.84;100.00;21004.97;4990932;28;20647;-61
2023/06/21 01:59:34;;;;;;;17.77;16.23;;;;;;;-141.84;99.94;20980.59;4991114;28;20210;-61
2023/06/21 02:02:06;;;;;;;18.02;16.27;;;;;;;-141.84;99.97;20968.38;4990745;28;20188;-63
2023/06/21 02:04:35;;;;;;;18.40;16.50;;;;;;;-141.84;100.00;20984.66;4991016;28;20198;-62
2023/06/21 02:07:05;;;;;;;18.98;17.05;;;;;;;-141.84;100.00;20939.94;4990997;28;20246;-62
2023/06/21 02:09:34;;;;;;;19.75;17.15;;;;;;;-141.84;100.00;20939.94;4990709;28;20657;-62
2023/06/21 02:12:06;;;;;;;18.92;16.95;;;;;;;-141.84;100.00;20880.97;4991130;28;20246;-61
2023/06/21 02:14:37;;;;;;;18.13;16.23;;;;;;;-141.84;100.00;20899.28;4990732;28;20326;-62
2023/06/21 02:17:06;;;;;;;18.77;16.85;;;;;;;-141.84;100.00;20909.44;4990919;28;20270;-62
2023/06/21 02:19:34;;;;;;;18.00;16.27;;;;;;;-141.84;100.00;20911.47;4972312;28;20267;-62
2023/06/21 02:22:03;;;;;;;18.90;16.95;;;;;;;-141.84;100.00;20905.38;4971695;28;20262;-61
2023/06/21 02:24:32;;;;;;;19.40;17.40;;;;;;;-141.84;100.00;20874.88;4971542;28;20208;-61
2023/06/21 02:27:00;;;;;;;18.80;17.10;;;;;;;-141.84;100.00;20907.41;4971506;28;20224;-61
2023/06/21 02:29:29;;;;;;;18.60;16.70;;;;;;;-141.84;100.00;20885.03;4971904;28;20208;-61
2023/06/21 02:31:59;;;;;;;18.58;16.65;;;;;;;-141.84;100.00;20870.81;4972943;28;20240;-61
2023/06/21 02:34:28;;;;;;;20.83;15.93;;;;;;;-141.84;100.00;20907.41;4988369;28;20207;-63
2023/06/21 02:36:56;;;;;;;17.95;16.15;;;;;;;-141.84;100.00;20868.78;4994677;28;20234;-60
2023/06/21 02:39:25;;;;;;;18.50;16.70;;;;;;;-141.84;100.00;20878.94;4994474;28;20208;-62
2023/06/21 02:41:54;;;;;;;18.27;16.58;;;;;;;-141.84;100.00;20858.59;4994250;28;20567;-62
2023/06/21 02:44:23;;;;;;;18.05;16.25;;;;;;;-141.84;100.00;20854.53;4985673;28;20208;-62
2023/06/21 02:46:51;;;;;;;17.42;15.82;;;;;;;-141.84;100.00;20832.19;4974991;28;20299;-61
2023/06/21 02:49:21;;;;;;;19.58;17.75;;;;;;;-141.84;100.00;20852.50;4976916;28;20215;-61
2023/06/21 02:51:51;;;;;;;18.95;17.10;;;;;;;-141.84;100.00;20864.72;4978511;28;20287;-62
2023/06/21 02:54:19;;;;;;;18.65;16.75;;;;;;;-141.84;100.00;20854.53;4994125;28;20643;-61
2023/06/21 02:56:48;;;;;;;19.65;17.67;;;;;;;-141.84;100.00;20840.31;4994093;28;20294;-60
2023/06/21 02:59:16;;;;;;;19.50;17.60;;;;;;;-141.84;100.00;20828.13;4993645;28;20750;-62
2023/06/21 03:01:46;;;;;;;20.42;17.38;;;;;;;-141.84;100.00;20809.81;4993912;28;20305;-62
2023/06/21 03:04:16;;;;;;;18.00;16.30;;;;;;;-141.84;100.00;20791.53;4993789;28;20198;-61
2023/06/21 03:06:46;;;;;;;20.15;18.08;;;;;;;-141.84;100.00;20781.38;4993653;28;20698;-62
2023/06/21 03:09:14;;;;;;;21.33;19.15;;;;;;;-141.84;100.00;20779.31;4993850;28;20208;-62
2023/06/21 03:11:44;;;;;;;20.30;18.35;;;;;;;-141.84;100.00;20769.16;4994137;28;20238;-62
2023/06/21 03:14:12;;;;;;;19.48;17.52;;;;;;;-141.84;100.00;20785.44;4993642;28;20267;-60
2023/06/21 03:16:41;;;;;;;21.27;19.13;;;;;;;-141.84;100.00;20811.84;4993343;28;20601;-62
2023/06/21 03:19:10;;;;;;;21.42;19.23;;;;;;;-141.84;100.00;20811.84;4977753;28;20204;-61
2023/06/21 03:21:39;;;;;;;21.45;19.45;;;;;;;-141.84;100.00;20826.09;4973986;28;20406;-62
2023/06/21 03:24:09;;;;;;;21.70;19.35;;;;;;;-141.84;99.88;20862.69;4974092;28;20211;-62
2023/06/21 03:26:37;;;;;;;21.35;19.33;;;;;;;-141.84;99.62;20874.88;4974096;28;20208;-61
2023/06/21 03:29:06;;;;;;;22.23;20.02;;;;;;;-141.84;99.83;20862.69;4974674;28;20355;-60
2023/06/21 03:31:35;;;;;;;23.35;20.98;;;;;;;-141.84;99.70;20860.66;4993043;28;20549;-61
2023/06/21 03:34:04;;;;;;;22.02;19.98;;;;;;;-141.84;99.39;20880.97;4993133;28;20654;-62
2023/06/21 03:36:32;;;;;;;22.95;20.58;;;;;;;-141.84;99.26;20826.09;4993317;28;20237;-62
2023/06/21 03:39:01;;;;;;;23.35;21.10;;;;;;;-141.84;99.50;20848.44;4993214;28;20290;-61
2023/06/21 03:41:30;;;;;;;22.95;20.52;;;;;;;-141.84;99.07;20878.94;4993283;28;20299;-61
2023/06/21 03:43:59;;;;;;;23.52;21.25;;;;;;;-141.84;98.75;20862.69;4986840;28;20210;-62
2023/06/21 03:46:27;;;;;;;24.95;22.55;;;;;;;-141.84;98.79;20836.25;4973754;28;20220;-63
2023/06/21 03:48:56;;;;;;;23.77;21.40;;;;;;;-141.84;98.79;20872.84;4975909;28;20676;-62
2023/06/21 03:51:25;;;;;;;23.48;21.15;;;;;;;-141.84;98.91;20842.34;4973896;28;20654;-61
2023/06/21 03:53:53;;;;;;;24.13;21.48;;;;;;;-141.84;98.63;20874.88;4993177;28;20242;-62
2023/06/21 03:56:22;;;;;;;23.55;21.25;;;;;;;-141.84;98.04;20874.88;4992988;28;20637;-62
2023/06/21 03:58:52;;;;;;;24.15;21.75;;;;;;;-141.84;97.75;20883.00;4993309;28;20199;-61
2023/06/21 04:01:22;;;;;;;22.13;19.92;;;;;;;-141.84;98.40;20834.22;4993326;28;20235;-62
2023/06/21 04:03:51;;;;;;;23.02;20.80;;;;;;;-141.84;99.05;20836.25;4992900;28;20191;-62
2023/06/21 04:06:19;;;;;;;23.40;21.13;;;;;;;-141.84;99.14;20854.53;4992553;28;20219;-63
2023/06/21 04:08:48;;;;;;;22.77;20.67;;;;;;;-141.84;98.92;20822.03;4992840;28;20282;-62
2023/06/21 04:11:16;;;;;;;23.45;21.15;;;;;;;-141.84;99.19;20830.16;4992561;28;20239;-63
2023/06/21 04:13:45;;;;;;;22.15;20.15;;;;;;;-141.84;99.11;20830.16;4992615;28;20203;-62
2023/06/21 04:16:18;;;;;;;21.88;19.80;;;;;;;-141.84;98.57;20856.56;4992542;28;20215;-62
2023/06/21 04:18:46;;;;;;;21.35;19.35;;;;;;;-141.84;97.94;20846.41;4979754;28;20660;-61
2023/06/21 04:21:15;;;;;;;21.05;19.05;;;;;;;-141.84;97.48;20848.44;4972869;28;20208;-62
2023/06/21 04:23:43;;;;;;;20.92;18.95;;;;;;;-141.84;96.01;20885.03;4973111;28;20196;-62
2023/06/21 04:26:12;;;;;;;22.63;19.08;;;;;;;-141.84;95.08;20893.16;4980394;28;20199;-61
2023/06/21 04:28:41;;;;;;;18.67;16.80;;;;;;;-141.84;91.05;20964.31;4992308;28;20290;-62
2023/06/21 04:31:09;;;;;;;17.77;16.00;;;;;;;-141.84;91.80;20952.13;4991861;28;20629;-61
2023/06/21 04:33:40;;;;;;;18.40;16.50;;;;;;;-141.84;91.67;20984.66;4992163;28;20203;-63
2023/06/21 04:36:09;;;;;;;20.58;14.63;;;;;;;-141.84;90.76;21019.22;4992119;28;20279;-62
2023/06/21 04:38:38;;;;;;;17.10;15.50;;;;;;;-141.84;89.04;21061.91;4992000;28;20675;-61
2023/06/21 04:41:06;;;;;;;17.08;14.32;;;;;;;-141.84;87.24;21090.38;4992064;28;20269;-61
2023/06/21 04:43:35;;;;;;;14.45;13.05;;;;;;;-141.84;86.87;21090.38;4989861;28;20204;-61
2023/06/21 04:46:04;;;;;;;14.98;13.48;;;;;;;-141.84;87.10;21122.91;4972012;28;20573;-62
2023/06/21 04:48:33;;;;;;;14.40;13.00;;;;;;;-141.84;86.66;21141.19;4974691;28;20738;-61
2023/06/21 04:51:02;;;;;;;13.55;12.25;;;;;;;-141.84;87.37;21277.41;4972042;28;20574;-62
2023/06/21 04:53:32;;;;;;;12.43;11.23;;;;;;;-141.84;76.67;21769.47;4989976;28;20285;-61
2023/06/21 04:56:01;;;;;;;12.25;10.13;;;;;;;-141.84;65.90;22371.38;4991564;28;20210;-62
2023/06/21 04:58:35;;;;;;;10.52;8.93;;;;;;;-141.84;61.01;22820.84;4991674;28;20555;-61
2023/06/21 05:01:04;;;;;;;13.07;8.77;;;;;;;-141.84;56.83;23313.09;4991673;28;20619;-62
2023/06/21 05:03:32;;;;;;;10.63;9.32;;;;;;;-141.84;53.13;23734.19;4991526;28;20766;-63
2023/06/21 05:06:03;;;;;;;10.07;8.57;;;;;;;-141.84;50.92;23970.19;4991679;28;20211;-67
2023/06/21 05:08:31;;;;;;;11.88;8.82;;;;;;;-141.84;51.07;24043.44;4991464;28;20781;-65
2023/06/21 05:11:00;;;;;;;10.13;9.13;;;;;;;-141.84;49.47;24238.75;4991249;28;20207;-67
2023/06/21 05:13:28;;;;;;;9.18;8.27;;;;;;;-141.84;49.59;24322.19;4991718;28;20522;-67
2023/06/21 05:15:57;;;;;;;10.85;8.80;;;;;;;-141.84;47.80;24564.31;4990896;28;20266;-67
2023/06/21 05:18:25;;;;;;;11.10;7.63;;;;;;;-141.84;47.29;24716.94;4982025;28;20207;-66
2023/06/21 05:20:55;;;;;;;10.85;8.75;;;;;;;-141.84;45.21;24957.06;4971943;28;20255;-68
2023/06/21 05:23:25;;;;;;;12.55;8.88;;;;;;;-141.84;45.78;24938.75;4986890;28;20299;-67
2023/06/21 05:25:53;;;;;;;11.77;7.97;;;;;;;-141.84;46.69;24808.50;4991747;28;20198;-66
2023/06/21 05:28:22;;;;;;;11.15;8.23;;;;;;;-141.84;46.05;25012.00;4991362;28;20219;-66
2023/06/21 05:30:50;;;;;;;14.15;8.32;;;;;;;-141.84;45.59;25081.19;4990757;28;20203;-67
2023/06/21 05:33:19;;;;;;;11.00;8.23;;;;;;;-141.84;46.82;24824.78;4991396;28;20203;-67
2023/06/21 05:35:48;;;;;;;12.05;8.05;;;;;;;-141.84;47.14;24816.66;4991091;28;20262;-68
2023/06/21 05:38:16;;;;;;;10.95;7.50;;;;;;;-141.84;47.42;24574.50;4991270;28;20278;-66
2023/06/21 05:40:46;;;;;;;15.48;7.95;;;;;;;-141.84;48.76;24295.72;4991203;28;20687;-67
2023/06/21 05:43:15;;;;;;;11.48;8.30;;;;;;;-141.84;50.33;24045.47;4991441;28;20408;-67
2023/06/21 05:45:43;;;;;;;12.32;8.23;;;;;;;-141.84;53.23;23567.38;4971415;28;20291;-68
2023/06/21 05:48:12;;;;;;;14.65;9.20;;;;;;;-141.84;55.87;23099.50;4974174;28;20220;-67
2023/06/21 05:50:40;;;;;;;14.40;8.45;;;;;;;-141.84;58.70;22853.41;4971794;28;20303;-67
2023/06/21 05:53:09;;;;;;;13.00;8.85;;;;;;;-141.84;60.63;22709.00;4986087;28;20570;-67
2023/06/21 05:55:37;;;;;;;10.50;8.75;;;;;;;-141.84;63.31;22591.03;4991370;28;20294;-67
2023/06/21 05:58:07;;;;;;;15.77;9.43;;;;;;;-141.84;62.75;22562.56;4990909;28;20737;-67
2023/06/21 06:00:36;;;;;;;17.30;9.63;;;;;;;-141.84;63.57;22540.19;4990715;28;20722;-67
2023/06/21 06:03:04;;;;;;;11.63;9.30;;;;;;;-141.84;63.38;22497.47;4990984;28;20200;-66
2023/06/21 06:05:33;;;;;;;12.68;9.05;;;;;;;-141.84;63.85;22466.97;4990787;28;20741;-67
2023/06/21 06:08:01;;;;;;;10.90;9.00;;;;;;;-141.84;65.04;22471.03;4994444;28;20223;-67
2023/06/21 06:10:30;;;;;;;14.07;8.93;;;;;;;-141.84;64.22;22485.28;4994966;28;20422;-67
2023/06/21 06:12:59;;;;;;;10.30;8.85;;;;;;;-141.84;64.41;22466.97;4994439;28;20677;-67
2023/06/21 06:15:29;;;;;;;11.25;9.05;;;;;;;-141.84;64.84;22424.25;4994395;28;20318;-68
2023/06/21 06:17:57;;;;;;;13.38;9.82;;;;;;;-141.84;64.57;22371.38;4988494;28;20692;-66
2023/06/21 06:20:27;;;;;;;10.18;8.98;;;;;;;-141.84;64.28;22355.13;4975160;28;20204;-66
2023/06/21 06:22:56;;;;;;;11.13;9.77;;;;;;;-141.84;63.99;22296.13;4975485;28;20208;-67
2023/06/21 06:25:24;;;;;;;10.90;9.70;;;;;;;-141.84;63.96;22387.66;4975349;28;20303;-67
2023/06/21 06:27:53;;;;;;;10.52;9.45;;;;;;;-141.84;64.62;22381.56;4974741;28;20323;-67
2023/06/21 06:30:21;;;;;;;10.85;9.40;;;;;;;-141.84;63.24;22452.72;4974779;28;20742;-67
2023/06/21 06:32:51;;;;;;;10.18;9.05;;;;;;;-141.84;62.77;22458.84;4974967;28;20301;-68
2023/06/21 06:35:20;;;;;;;11.70;9.20;;;;;;;-141.84;62.64;22485.28;4975191;28;20223;-67
2023/06/21 06:37:48;;;;;;;11.55;9.48;;;;;;;-141.84;62.80;22519.84;4974895;28;20259;-68
2023/06/21 06:40:17;;;;;;;10.73;9.13;;;;;;;-141.84;61.60;22607.31;4974977;28;20219;-69
2023/06/21 06:42:46;;;;;;;9.60;8.65;;;;;;;-141.84;62.20;22623.56;4974738;28;20208;-69
2023/06/21 06:45:14;;;;;;;13.05;10.00;;;;;;;-141.84;61.13;22688.66;4974154;28;20664;-68
2023/06/21 06:47:43;;;;;;;11.25;9.40;;;;;;;-141.84;60.44;22641.88;4976555;28;20432;-67
2023/06/21 06:50:13;;;;;;;15.43;9.80;;;;;;;-141.84;60.35;22623.56;5013774;28;20213;-68
2023/06/21 06:52:41;;;;;;;14.00;8.98;;;;;;;-141.84;62.07;22595.09;4991522;28;20287;-69
2023/06/21 06:55:10;;;;;;;10.43;9.25;;;;;;;-141.84;60.77;22621.53;4974687;28;20227;-71
2023/06/21 06:57:39;;;;;;;10.48;9.18;;;;;;;-141.84;59.42;22603.22;4974625;28;20286;-68
2023/06/21 07:00:23;;;;;;;9.40;8.60;;;;;;;-141.84;61.41;22584.94;4974501;28;20196;-69
2023/06/21 07:02:56;;;;;;;9.77;8.98;;;;;;;-141.84;59.76;22617.47;4974578;28;20200;-68
2023/06/21 07:05:26;;;;;;;10.15;9.15;;;;;;;-141.84;60.83;22672.38;4974396;28;20675;-68
2023/06/21 07:07:56;;;;;;;10.93;9.48;;;;;;;-141.84;60.56;22686.63;4974667;28;20215;-68
2023/06/21 07:10:24;;;;;;;10.32;9.18;;;;;;;-141.84;59.65;22688.66;4975355;28;20292;-67
2023/06/21 07:12:53;;;;;;;10.52;9.55;;;;;;;-141.84;59.17;22725.25;4974439;28;20216;-68
2023/06/21 07:15:22;;;;;;;12.10;9.25;;;;;;;-141.84;57.92;22786.28;4984422;28;20656;-69
2023/06/21 07:17:54;;;;;;;9.88;8.88;;;;;;;-141.84;58.39;22784.25;4987970;28;20188;-67
2023/06/21 07:20:22;;;;;;;10.20;9.30;;;;;;;-141.84;57.11;22837.13;4974103;28;20212;-69
2023/06/21 07:22:52;;;;;;;10.18;9.27;;;;;;;-141.84;57.41;22826.97;4974054;28;20239;-68
2023/06/21 07:25:21;;;;;;;11.02;9.48;;;;;;;-141.84;56.75;22761.88;4974304;28;20200;-68
2023/06/21 07:27:50;;;;;;;10.48;9.32;;;;;;;-141.84;58.38;22767.97;4973620;28;20570;-68
2023/06/21 07:30:19;;;;;;;10.63;9.50;;;;;;;-141.84;58.30;22808.66;4974024;28;20246;-68
2023/06/21 07:32:48;;;;;;;10.68;9.77;;;;;;;-141.84;57.24;22867.63;4974161;28;20274;-69
2023/06/21 07:35:17;;;;;;;12.13;11.02;;;;;;;-141.84;57.32;22863.56;4973896;28;20200;-68
2023/06/21 07:37:46;;;;;;;11.85;10.65;;;;;;;-141.84;56.87;22839.16;4973667;28;20208;-69
2023/06/21 07:40:16;;;;;;;12.82;11.73;;;;;;;-141.84;56.61;22770.00;4973692;28;20208;-67
2023/06/21 07:42:45;;;;;;;12.20;10.82;;;;;;;-141.84;58.77;22717.13;4974120;28;20291;-68
2023/06/21 07:45:13;;;;;;;13.50;12.20;;;;;;;-141.84;57.77;22737.47;4973027;28;20763;-69
2023/06/21 07:47:42;;;;;;;12.60;11.50;;;;;;;-141.84;58.73;22733.41;4975251;28;20208;-68
2023/06/21 07:50:11;;;;;;;11.27;10.27;;;;;;;-141.84;58.22;22767.97;4978262;28;20228;-68
2023/06/21 07:52:50;;;;;;;10.75;9.77;;;;;;;-141.84;57.83;22829.00;4981793;28;20196;-68
2023/06/21 07:55:20;;;;;;;10.63;9.75;;;;;;;-141.84;58.42;22810.69;4973475;28;20208;-68
2023/06/21 07:57:49;;;;;;;10.98;9.98;;;;;;;-141.84;56.43;22916.44;4973566;28;20199;-68
2023/06/21 08:00:18;;;;;;;10.45;9.45;;;;;;;-141.84;57.05;22900.19;4972924;28;20231;-67
2023/06/21 08:02:49;;;;;;;11.40;10.30;;;;;;;-141.84;56.94;22926.63;4973414;28;20291;-68
2023/06/21 08:05:18;;;;;;;10.55;9.55;;;;;;;-141.84;55.96;23005.94;4973021;28;20647;-68
2023/06/21 08:07:47;;;;;;;11.52;10.25;;;;;;;-141.84;56.02;23012.06;4973696;28;20267;-69
2023/06/21 08:10:15;;;;;;;11.80;10.60;;;;;;;-141.84;55.46;23018.16;4972596;28;20318;-68
2023/06/21 08:12:46;;;;;;;11.10;10.00;;;;;;;-141.84;55.08;23103.59;4972799;28;20208;-68
2023/06/21 08:15:14;;;;;;;11.07;9.98;;;;;;;-141.84;55.23;23107.66;4972667;28;20241;-68
2023/06/21 08:17:43;;;;;;;11.68;9.63;;;;;;;-141.84;55.11;23172.75;4976736;28;20711;-68
2023/06/21 08:20:13;;;;;;;10.60;9.60;;;;;;;-141.84;54.94;23189.00;4973140;28;20278;-68
2023/06/21 08:22:41;;;;;;;11.18;9.90;;;;;;;-141.84;54.65;23201.22;4973019;28;20208;-68
2023/06/21 08:25:10;;;;;;;10.32;9.35;;;;;;;-141.84;54.00;23066.97;4972869;28;20235;-67
2023/06/21 08:27:38;;;;;;;11.38;10.27;;;;;;;-141.84;54.54;22957.13;4972969;28;20204;-68
2023/06/21 08:30:12;;;;;;;13.15;9.35;;;;;;;-141.84;55.47;22912.38;4971721;28;20208;-67
2023/06/21 08:32:40;;;;;;;11.50;9.70;;;;;;;-141.84;55.64;22936.78;4972562;28;20275;-69
2023/06/21 08:35:09;;;;;;;10.45;9.38;;;;;;;-141.84;56.24;22885.94;4972726;28;20208;-68
2023/06/21 08:37:40;;;;;;;10.60;9.50;;;;;;;-141.84;55.12;22934.75;4972542;28;20204;-68
2023/06/21 08:40:10;;;;;;;11.15;10.05;;;;;;;-141.84;55.71;22932.72;4972754;28;20185;-69
2023/06/21 08:42:38;;;;;;;10.80;9.70;;;;;;;-141.84;55.99;22928.66;4972794;28;20259;-68
2023/06/21 08:45:07;;;;;;;11.45;10.05;;;;;;;-141.84;56.16;22922.56;4972253;28;20236;-68
2023/06/21 08:47:38;;;;;;;11.77;10.60;;;;;;;-141.84;55.55;22879.84;4972601;28;20204;-67
2023/06/21 08:50:08;;;;;;;10.75;9.75;;;;;;;-141.84;56.45;22908.31;4977002;28;20220;-68
2023/06/21 08:52:38;;;;;;;11.20;10.10;;;;;;;-141.84;55.54;23032.38;4985217;28;20279;-68
2023/06/21 08:55:11;;;;;;;10.75;9.85;;;;;;;-141.84;54.31;23162.56;4994075;28;20227;-67
2023/06/21 08:57:46;;;;;;;10.02;9.23;;;;;;;-141.84;53.04;23327.34;4994498;28;20270;-68
2023/06/21 09:00:18;;;;;;;10.35;8.30;;;;;;;-141.84;50.70;23445.31;4994668;28;20179;-69
2023/06/21 09:02:55;;;;;;;8.88;8.18;;;;;;;-141.84;50.19;23414.81;4995478;28;20371;-68
2023/06/21 09:05:29;;;;;;;9.23;8.43;;;;;;;-141.84;51.22;23339.53;4994509;28;20747;-68
2023/06/21 09:07:59;;;;;;;10.65;9.65;;;;;;;-141.84;51.72;23327.34;4992896;28;20239;-69
2023/06/21 09:10:30;;;;;;;9.88;9.00;;;;;;;-141.84;52.20;23282.59;4989777;28;20208;-69
2023/06/21 09:13:03;;;;;;;9.88;8.93;;;;;;;-141.84;51.27;23363.94;4973858;28;20204;-69
2023/06/21 09:15:32;;;;;;;9.60;8.80;;;;;;;-141.84;51.50;23286.66;4974338;28;20267;-68
2023/06/21 09:18:03;;;;;;;10.65;9.65;;;;;;;-141.84;51.00;23376.16;4979483;28;20215;-69
2023/06/21 09:20:32;;;;;;;9.43;8.52;;;;;;;-141.84;50.34;23412.78;4974196;28;20188;-69
2023/06/21 09:23:01;;;;;;;9.68;8.88;;;;;;;-141.84;50.04;23481.94;4974701;28;20663;-68
2023/06/21 09:25:30;;;;;;;9.60;8.80;;;;;;;-141.84;49.79;23473.81;4972783;28;20207;-68
2023/06/21 09:27:59;;;;;;;9.57;8.60;;;;;;;-141.84;50.26;23510.41;4972230;28;20294;-69
2023/06/21 09:30:28;;;;;;;10.57;8.45;;;;;;;-141.84;49.63;23532.78;4971691;28;20224;-68
2023/06/21 09:33:08;;;;;;;10.38;9.45;;;;;;;-141.84;49.92;23636.53;4971798;28;20211;-68
2023/06/21 09:35:38;;;;;;;10.00;9.10;;;;;;;-141.84;49.36;23685.38;4971547;28;20194;-69
2023/06/21 09:38:22;;;;;;;8.70;7.80;;;;;;;-141.84;47.58;23642.66;4971672;28;20566;-68
2023/06/21 09:40:50;;;;;;;7.80;7.00;;;;;;;-141.84;47.43;23581.63;4971821;28;20188;-68
2023/06/21 09:43:21;;;;;;;10.30;9.30;;;;;;;-141.84;48.80;23553.13;4975890;28;20211;-69
2023/06/21 09:46:07;;;;;;;7.60;6.95;;;;;;;-141.84;47.14;23516.53;4977490;28;20204;-68
2023/06/21 09:48:39;;;;;;;7.03;6.43;;;;;;;-141.84;48.43;23439.22;4978510;28;20215;-69
2023/06/21 09:51:09;;;;;;;7.53;6.90;;;;;;;-141.84;47.63;23370.06;4975216;28;20208;-68
2023/06/21 09:53:42;;;;;;;7.00;6.40;;;;;;;-141.84;48.65;23331.41;4993778;28;20223;-69
2023/06/21 09:56:12;;;;;;;7.72;7.10;;;;;;;-141.84;48.64;23366.00;4994692;28;20653;-69
2023/06/21 09:58:43;;;;;;;7.95;7.10;;;;;;;-141.84;48.67;23398.53;4994903;28;20674;-67
2023/06/21 10:01:15;;;;;;;7.88;7.10;;;;;;;-141.84;49.15;23400.56;4994324;28;20640;-68
2023/06/21 10:03:46;;;;;;;8.75;7.75;;;;;;;-141.84;49.14;23422.94;4994216;28;20633;-69
2023/06/21 10:06:17;;;;;;;8.05;7.25;;;;;;;-141.84;48.75;23424.97;4994639;28;20314;-69
2023/06/21 10:08:51;;;;;;;7.93;7.13;;;;;;;-141.84;49.13;23396.50;4995032;28;20280;-69
2023/06/21 10:11:21;;;;;;;7.22;6.47;;;;;;;-141.84;47.37;23400.56;4984889;28;20216;-69
2023/06/21 10:13:50;;;;;;;8.48;6.80;;;;;;;-141.84;48.03;23363.94;4975721;28;20204;-69
2023/06/21 10:16:20;;;;;;;7.57;6.70;;;;;;;-141.84;48.50;23408.72;4974744;28;20255;-68
2023/06/21 10:18:53;;;;;;;7.30;6.70;;;;;;;-141.84;47.91;23477.88;4979422;28;20747;-68
2023/06/21 10:21:23;;;;;;;7.68;7.07;;;;;;;-141.84;47.70;23563.31;4974932;28;20722;-68
2023/06/21 10:23:55;;;;;;;7.30;6.60;;;;;;;-141.84;46.88;23577.56;4974791;28;20308;-68
2023/06/21 10:26:28;;;;;;;6.70;6.07;;;;;;;-141.84;47.40;23606.03;4974847;28;20188;-68
2023/06/21 10:28:59;;;;;;;7.43;6.72;;;;;;;-141.84;47.70;23610.09;4975122;28;20223;-68
2023/06/21 10:31:30;;;;;;;7.43;6.60;;;;;;;-141.84;47.56;23663.00;4974755;28;20291;-68
2023/06/21 10:34:06;;;;;;;6.75;5.80;;;;;;;-141.84;46.78;23624.34;4974755;28;20239;-68
2023/06/21 10:36:42;;;;;;;7.28;6.55;;;;;;;-141.84;46.88;23630.44;4974542;28;20720;-69
2023/06/21 10:39:12;;;;;;;6.85;6.13;;;;;;;-141.84;46.35;23713.84;4974929;28;20618;-68
2023/06/21 10:41:41;;;;;;;8.48;6.05;;;;;;;-141.84;45.97;23738.25;4984127;28;20294;-69
2023/06/21 10:44:10;;;;;;;6.65;6.03;;;;;;;-141.84;45.52;23852.19;4986883;28;20255;-67
2023/06/21 10:46:41;;;;;;;6.97;6.28;;;;;;;-141.84;44.85;23840.00;4974239;28;20751;-69
2023/06/21 10:49:12;;;;;;;7.30;6.57;;;;;;;-141.84;45.00;23884.75;4977946;28;20286;-69
2023/06/21 10:51:41;;;;;;;6.43;5.80;;;;;;;-141.84;44.50;23884.75;4976810;28;20234;-68
2023/06/21 10:54:11;;;;;;;7.57;6.53;;;;;;;-141.84;44.01;24033.25;4994032;28;20235;-68
2023/06/21 10:56:40;;;;;;;6.93;5.78;;;;;;;-141.84;44.93;23953.91;4986700;28;20285;-64
2023/06/21 10:59:09;;;;;;;5.78;5.32;;;;;;;-141.84;44.67;23886.78;4976807;28;20572;-65
2023/06/21 11:01:38;;;;;;;6.07;5.47;;;;;;;-141.84;44.45;23791.16;4992998;28;20246;-67
2023/06/21 11:04:07;;;;;;;5.63;5.10;;;;;;;-141.84;44.50;23752.50;4993227;28;20215;-68
2023/06/21 11:06:38;;;;;;;6.00;5.50;;;;;;;-141.84;44.82;23833.88;4993043;28;20203;-68
2023/06/21 11:09:11;;;;;;;6.20;5.70;;;;;;;-141.84;44.93;23890.84;4987772;28;20208;-70
2023/06/21 11:11:49;;;;;;;6.68;5.57;;;;;;;-141.84;44.85;23953.91;4979899;28;20773;-69
2023/06/21 11:14:23;;;;;;;5.88;5.38;;;;;;;-141.84;43.97;24008.84;4972948;28;20673;-69
2023/06/21 11:17:07;;;;;;;6.22;5.47;;;;;;;-141.84;45.05;23890.84;4984420;28;20255;-69
2023/06/21 11:19:37;;;;;;;6.78;5.22;;;;;;;-141.84;44.70;23886.78;4973420;28;20243;-70